sensor_id;sensor_type;location;lat;lon;timestamp;P1;durP1;ratioP1;P2;durP2;ratioP2
34505;SDS011;20748;42.632;23.198;2023-07-30T00:01:50;3.75;;;2.00;;
34505;SDS011;20748;42.632;23.198;2023-07-30T00:04:23;5.07;;;2.00;;
34505;SDS011;20748;42.632;23.198;2023-07-30T00:06:56;3.70;;;2.10;;
34505;SDS011;20748;42.632;23.198;2023-07-30T00:09:29;4.00;;;2.50;;
34505;SDS011;20748;42.632;23.198;2023-07-30T00:12:01;3.35;;;2.20;;
34505;SDS011;20748;42.632;23.198;2023-07-30T00:14:34;4.75;;;2.00;;
34505;SDS011;20748;42.632;23.198;2023-07-30T00:17:07;5.25;;;1.85;;
34505;SDS011;20748;42.632;23.198;2023-07-30T00:19:39;6.43;;;2.55;;
34505;SDS011;20748;42.632;23.198;2023-07-30T00:22:12;4.80;;;2.30;;
34505;SDS011;20748;42.632;23.198;2023-07-30T00:24:44;3.22;;;1.90;;
34505;SDS011;20748;42.632;23.198;2023-07-30T00:27:17;3.78;;;2.47;;
34505;SDS011;20748;42.632;23.198;2023-07-30T00:29:53;3.90;;;2.10;;
34505;SDS011;20748;42.632;23.198;2023-07-30T00:32:25;4.45;;;2.03;;
34505;SDS011;20748;42.632;23.198;2023-07-30T00:34:58;2.65;;;1.75;;
34505;SDS011;20748;42.632;23.198;2023-07-30T00:37:31;3.95;;;2.20;;
34505;SDS011;20748;42.632;23.198;2023-07-30T00:40:05;4.53;;;2.20;;
34505;SDS011;20748;42.632;23.198;2023-07-30T00:42:38;2.88;;;1.70;;
34505;SDS011;20748;42.632;23.198;2023-07-30T00:45:10;2.50;;;1.75;;
34505;SDS011;20748;42.632;23.198;2023-07-30T00:47:43;3.67;;;1.92;;
34505;SDS011;20748;42.632;23.198;2023-07-30T00:50:23;3.17;;;1.77;;
34505;SDS011;20748;42.632;23.198;2023-07-30T00:52:56;2.60;;;1.92;;
34505;SDS011;20748;42.632;23.198;2023-07-30T00:55:29;5.05;;;1.98;;
34505;SDS011;20748;42.632;23.198;2023-07-30T00:58:02;3.25;;;1.85;;
34505;SDS011;20748;42.632;23.198;2023-07-30T01:00:36;3.50;;;1.85;;
34505;SDS011;20748;42.632;23.198;2023-07-30T01:03:08;3.22;;;2.17;;
34505;SDS011;20748;42.632;23.198;2023-07-30T01:05:41;4.03;;;2.33;;
34505;SDS011;20748;42.632;23.198;2023-07-30T01:08:13;4.15;;;1.58;;
34505;SDS011;20748;42.632;23.198;2023-07-30T01:10:48;3.95;;;2.03;;
34505;SDS011;20748;42.632;23.198;2023-07-30T01:13:22;3.85;;;1.95;;
34505;SDS011;20748;42.632;23.198;2023-07-30T01:15:55;3.53;;;2.33;;
34505;SDS011;20748;42.632;23.198;2023-07-30T01:18:27;3.28;;;2.08;;
34505;SDS011;20748;42.632;23.198;2023-07-30T01:21:01;4.05;;;1.85;;
34505;SDS011;20748;42.632;23.198;2023-07-30T01:23:33;3.47;;;1.88;;
34505;SDS011;20748;42.632;23.198;2023-07-30T01:26:07;3.20;;;1.85;;
34505;SDS011;20748;42.632;23.198;2023-07-30T01:28:45;3.25;;;2.15;;
34505;SDS011;20748;42.632;23.198;2023-07-30T01:31:20;3.42;;;2.00;;
34505;SDS011;20748;42.632;23.198;2023-07-30T01:33:57;3.80;;;2.05;;
34505;SDS011;20748;42.632;23.198;2023-07-30T01:36:34;3.15;;;2.20;;
34505;SDS011;20748;42.632;23.198;2023-07-30T01:39:07;3.65;;;2.00;;
34505;SDS011;20748;42.632;23.198;2023-07-30T01:41:41;3.35;;;2.20;;
34505;SDS011;20748;42.632;23.198;2023-07-30T01:44:14;5.43;;;2.13;;
34505;SDS011;20748;42.632;23.198;2023-07-30T01:46:46;4.68;;;2.17;;
34505;SDS011;20748;42.632;23.198;2023-07-30T01:49:18;4.57;;;2.55;;
34505;SDS011;20748;42.632;23.198;2023-07-30T01:51:52;6.20;;;2.40;;
34505;SDS011;20748;42.632;23.198;2023-07-30T01:54:24;6.20;;;2.10;;
34505;SDS011;20748;42.632;23.198;2023-07-30T01:56:56;4.95;;;2.20;;
34505;SDS011;20748;42.632;23.198;2023-07-30T01:59:29;2.88;;;1.83;;
34505;SDS011;20748;42.632;23.198;2023-07-30T02:02:01;3.85;;;2.25;;
34505;SDS011;20748;42.632;23.198;2023-07-30T02:04:34;3.65;;;2.30;;
34505;SDS011;20748;42.632;23.198;2023-07-30T02:07:07;6.35;;;2.50;;
34505;SDS011;20748;42.632;23.198;2023-07-30T02:09:39;4.43;;;2.35;;
34505;SDS011;20748;42.632;23.198;2023-07-30T02:12:12;3.30;;;2.20;;
34505;SDS011;20748;42.632;23.198;2023-07-30T02:14:44;4.78;;;2.42;;
34505;SDS011;20748;42.632;23.198;2023-07-30T02:17:17;5.72;;;2.40;;
34505;SDS011;20748;42.632;23.198;2023-07-30T02:19:49;3.95;;;2.03;;
34505;SDS011;20748;42.632;23.198;2023-07-30T02:22:22;5.47;;;1.90;;
34505;SDS011;20748;42.632;23.198;2023-07-30T02:24:55;3.53;;;2.45;;
34505;SDS011;20748;42.632;23.198;2023-07-30T02:27:28;3.88;;;2.08;;
34505;SDS011;20748;42.632;23.198;2023-07-30T02:30:01;8.00;;;2.65;;
34505;SDS011;20748;42.632;23.198;2023-07-30T02:32:33;3.38;;;2.15;;
34505;SDS011;20748;42.632;23.198;2023-07-30T02:35:06;5.63;;;2.60;;
34505;SDS011;20748;42.632;23.198;2023-07-30T02:37:39;7.78;;;2.20;;
34505;SDS011;20748;42.632;23.198;2023-07-30T02:40:11;6.22;;;1.75;;
34505;SDS011;20748;42.632;23.198;2023-07-30T02:42:44;6.07;;;2.05;;
34505;SDS011;20748;42.632;23.198;2023-07-30T02:45:16;4.60;;;2.10;;
34505;SDS011;20748;42.632;23.198;2023-07-30T02:47:49;4.32;;;2.47;;
34505;SDS011;20748;42.632;23.198;2023-07-30T02:50:22;3.92;;;2.40;;
34505;SDS011;20748;42.632;23.198;2023-07-30T02:52:55;3.75;;;2.20;;
34505;SDS011;20748;42.632;23.198;2023-07-30T02:55:27;3.65;;;2.60;;
34505;SDS011;20748;42.632;23.198;2023-07-30T02:57:59;4.25;;;1.90;;
34505;SDS011;20748;42.632;23.198;2023-07-30T03:00:32;4.30;;;2.30;;
34505;SDS011;20748;42.632;23.198;2023-07-30T03:03:05;4.07;;;2.00;;
34505;SDS011;20748;42.632;23.198;2023-07-30T03:05:37;3.88;;;2.30;;
34505;SDS011;20748;42.632;23.198;2023-07-30T03:08:14;7.72;;;2.22;;
34505;SDS011;20748;42.632;23.198;2023-07-30T03:10:46;5.15;;;2.30;;
34505;SDS011;20748;42.632;23.198;2023-07-30T03:13:19;4.10;;;2.40;;
34505;SDS011;20748;42.632;23.198;2023-07-30T03:15:53;4.28;;;2.10;;
34505;SDS011;20748;42.632;23.198;2023-07-30T03:18:25;4.13;;;2.30;;
34505;SDS011;20748;42.632;23.198;2023-07-30T03:20:58;4.13;;;2.10;;
34505;SDS011;20748;42.632;23.198;2023-07-30T03:23:32;4.18;;;2.15;;
34505;SDS011;20748;42.632;23.198;2023-07-30T03:26:04;3.55;;;2.20;;
34505;SDS011;20748;42.632;23.198;2023-07-30T03:28:36;4.35;;;2.42;;
34505;SDS011;20748;42.632;23.198;2023-07-30T03:31:12;5.07;;;2.15;;
34505;SDS011;20748;42.632;23.198;2023-07-30T03:33:44;3.92;;;2.20;;
34505;SDS011;20748;42.632;23.198;2023-07-30T03:36:17;6.57;;;2.45;;
34505;SDS011;20748;42.632;23.198;2023-07-30T03:38:50;3.60;;;2.22;;
34505;SDS011;20748;42.632;23.198;2023-07-30T03:41:22;4.38;;;2.50;;
34505;SDS011;20748;42.632;23.198;2023-07-30T03:43:55;3.58;;;2.42;;
34505;SDS011;20748;42.632;23.198;2023-07-30T03:46:27;4.22;;;2.00;;
34505;SDS011;20748;42.632;23.198;2023-07-30T03:48:59;4.07;;;2.22;;
34505;SDS011;20748;42.632;23.198;2023-07-30T03:51:33;4.43;;;2.22;;
34505;SDS011;20748;42.632;23.198;2023-07-30T03:54:07;5.85;;;2.47;;
34505;SDS011;20748;42.632;23.198;2023-07-30T03:56:39;4.35;;;2.63;;
34505;SDS011;20748;42.632;23.198;2023-07-30T03:59:13;4.10;;;2.50;;
34505;SDS011;20748;42.632;23.198;2023-07-30T04:01:45;5.70;;;2.28;;
34505;SDS011;20748;42.632;23.198;2023-07-30T04:04:18;3.33;;;2.05;;
34505;SDS011;20748;42.632;23.198;2023-07-30T04:06:50;3.70;;;2.33;;
34505;SDS011;20748;42.632;23.198;2023-07-30T04:09:23;4.20;;;2.35;;
34505;SDS011;20748;42.632;23.198;2023-07-30T04:11:56;4.95;;;2.30;;
34505;SDS011;20748;42.632;23.198;2023-07-30T04:14:28;5.75;;;2.10;;
34505;SDS011;20748;42.632;23.198;2023-07-30T04:17:01;4.90;;;2.72;;
34505;SDS011;20748;42.632;23.198;2023-07-30T04:19:33;3.97;;;2.38;;
34505;SDS011;20748;42.632;23.198;2023-07-30T04:22:06;4.32;;;2.60;;
34505;SDS011;20748;42.632;23.198;2023-07-30T04:24:39;4.72;;;2.72;;
34505;SDS011;20748;42.632;23.198;2023-07-30T04:27:11;6.90;;;3.00;;
34505;SDS011;20748;42.632;23.198;2023-07-30T04:29:43;7.90;;;3.00;;
34505;SDS011;20748;42.632;23.198;2023-07-30T04:32:16;3.38;;;2.33;;
34505;SDS011;20748;42.632;23.198;2023-07-30T04:34:49;3.65;;;2.20;;
34505;SDS011;20748;42.632;23.198;2023-07-30T04:37:21;4.75;;;2.85;;
34505;SDS011;20748;42.632;23.198;2023-07-30T04:39:54;4.38;;;2.53;;
34505;SDS011;20748;42.632;23.198;2023-07-30T04:42:27;7.30;;;2.53;;
34505;SDS011;20748;42.632;23.198;2023-07-30T04:44:59;5.60;;;2.85;;
34505;SDS011;20748;42.632;23.198;2023-07-30T04:47:32;3.92;;;2.55;;
34505;SDS011;20748;42.632;23.198;2023-07-30T04:50:05;5.68;;;2.90;;
34505;SDS011;20748;42.632;23.198;2023-07-30T04:52:37;4.75;;;2.80;;
34505;SDS011;20748;42.632;23.198;2023-07-30T04:55:11;4.90;;;2.75;;
34505;SDS011;20748;42.632;23.198;2023-07-30T04:57:43;4.88;;;3.05;;
34505;SDS011;20748;42.632;23.198;2023-07-30T05:00:16;5.57;;;3.00;;
34505;SDS011;20748;42.632;23.198;2023-07-30T05:02:48;6.82;;;3.75;;
34505;SDS011;20748;42.632;23.198;2023-07-30T05:05:21;3.80;;;2.47;;
34505;SDS011;20748;42.632;23.198;2023-07-30T05:07:53;4.30;;;2.50;;
34505;SDS011;20748;42.632;23.198;2023-07-30T05:10:28;5.18;;;3.10;;
34505;SDS011;20748;42.632;23.198;2023-07-30T05:13:00;4.93;;;3.20;;
34505;SDS011;20748;42.632;23.198;2023-07-30T05:15:32;4.95;;;2.95;;
34505;SDS011;20748;42.632;23.198;2023-07-30T05:18:05;4.45;;;2.63;;
34505;SDS011;20748;42.632;23.198;2023-07-30T05:20:37;5.40;;;3.33;;
34505;SDS011;20748;42.632;23.198;2023-07-30T05:23:10;5.95;;;2.78;;
34505;SDS011;20748;42.632;23.198;2023-07-30T05:25:43;5.25;;;2.88;;
34505;SDS011;20748;42.632;23.198;2023-07-30T05:28:15;10.27;;;3.25;;
34505;SDS011;20748;42.632;23.198;2023-07-30T05:30:48;5.05;;;3.03;;
34505;SDS011;20748;42.632;23.198;2023-07-30T05:33:20;5.60;;;2.72;;
34505;SDS011;20748;42.632;23.198;2023-07-30T05:35:52;4.13;;;2.72;;
34505;SDS011;20748;42.632;23.198;2023-07-30T05:38:25;5.53;;;2.65;;
34505;SDS011;20748;42.632;23.198;2023-07-30T05:40:58;3.85;;;2.40;;
34505;SDS011;20748;42.632;23.198;2023-07-30T05:43:30;4.10;;;2.17;;
34505;SDS011;20748;42.632;23.198;2023-07-30T05:46:02;4.57;;;2.17;;
34505;SDS011;20748;42.632;23.198;2023-07-30T05:48:35;3.72;;;1.95;;
34505;SDS011;20748;42.632;23.198;2023-07-30T05:51:07;4.10;;;2.53;;
34505;SDS011;20748;42.632;23.198;2023-07-30T05:53:40;4.32;;;2.63;;
34505;SDS011;20748;42.632;23.198;2023-07-30T05:56:13;3.40;;;2.08;;
34505;SDS011;20748;42.632;23.198;2023-07-30T05:58:45;4.93;;;2.05;;
34505;SDS011;20748;42.632;23.198;2023-07-30T06:01:18;9.55;;;3.22;;
34505;SDS011;20748;42.632;23.198;2023-07-30T06:03:51;4.63;;;2.15;;
34505;SDS011;20748;42.632;23.198;2023-07-30T06:06:23;3.78;;;2.25;;
34505;SDS011;20748;42.632;23.198;2023-07-30T06:08:58;4.40;;;2.10;;
34505;SDS011;20748;42.632;23.198;2023-07-30T06:11:32;3.45;;;2.15;;
34505;SDS011;20748;42.632;23.198;2023-07-30T06:14:04;2.70;;;1.73;;
34505;SDS011;20748;42.632;23.198;2023-07-30T06:16:37;3.03;;;2.13;;
34505;SDS011;20748;42.632;23.198;2023-07-30T06:19:09;3.13;;;2.08;;
34505;SDS011;20748;42.632;23.198;2023-07-30T06:21:42;6.47;;;1.75;;
34505;SDS011;20748;42.632;23.198;2023-07-30T06:24:14;2.97;;;1.77;;
34505;SDS011;20748;42.632;23.198;2023-07-30T06:26:47;4.03;;;2.30;;
34505;SDS011;20748;42.632;23.198;2023-07-30T06:29:19;4.68;;;2.25;;
34505;SDS011;20748;42.632;23.198;2023-07-30T06:31:52;4.05;;;1.98;;
34505;SDS011;20748;42.632;23.198;2023-07-30T06:34:24;5.38;;;2.13;;
34505;SDS011;20748;42.632;23.198;2023-07-30T06:36:57;3.00;;;1.80;;
34505;SDS011;20748;42.632;23.198;2023-07-30T06:39:29;2.97;;;2.10;;
34505;SDS011;20748;42.632;23.198;2023-07-30T06:42:02;6.60;;;1.95;;
34505;SDS011;20748;42.632;23.198;2023-07-30T06:44:35;3.22;;;2.13;;
34505;SDS011;20748;42.632;23.198;2023-07-30T06:47:07;3.67;;;1.75;;
34505;SDS011;20748;42.632;23.198;2023-07-30T06:49:40;4.95;;;2.75;;
34505;SDS011;20748;42.632;23.198;2023-07-30T06:52:12;3.83;;;1.98;;
34505;SDS011;20748;42.632;23.198;2023-07-30T06:54:45;5.47;;;2.25;;
34505;SDS011;20748;42.632;23.198;2023-07-30T06:57:17;4.55;;;2.20;;
34505;SDS011;20748;42.632;23.198;2023-07-30T06:59:50;4.95;;;2.00;;
34505;SDS011;20748;42.632;23.198;2023-07-30T07:02:22;3.90;;;2.03;;
34505;SDS011;20748;42.632;23.198;2023-07-30T07:04:55;4.93;;;2.38;;
34505;SDS011;20748;42.632;23.198;2023-07-30T07:07:27;4.10;;;2.40;;
34505;SDS011;20748;42.632;23.198;2023-07-30T07:09:59;3.67;;;2.47;;
34505;SDS011;20748;42.632;23.198;2023-07-30T07:12:33;2.78;;;2.10;;
34505;SDS011;20748;42.632;23.198;2023-07-30T07:15:06;4.88;;;2.70;;
34505;SDS011;20748;42.632;23.198;2023-07-30T07:17:39;6.47;;;2.58;;
34505;SDS011;20748;42.632;23.198;2023-07-30T07:20:11;5.90;;;3.03;;
34505;SDS011;20748;42.632;23.198;2023-07-30T07:22:44;4.10;;;2.55;;
34505;SDS011;20748;42.632;23.198;2023-07-30T07:28:19;7.75;;;2.55;;
34505;SDS011;20748;42.632;23.198;2023-07-30T07:30:52;4.10;;;2.92;;
34505;SDS011;20748;42.632;23.198;2023-07-30T07:33:24;4.57;;;2.75;;
34505;SDS011;20748;42.632;23.198;2023-07-30T07:36:03;5.13;;;2.28;;
34505;SDS011;20748;42.632;23.198;2023-07-30T07:38:36;4.75;;;2.80;;
34505;SDS011;20748;42.632;23.198;2023-07-30T07:41:13;6.53;;;2.78;;
34505;SDS011;20748;42.632;23.198;2023-07-30T07:43:47;4.55;;;3.20;;
34505;SDS011;20748;42.632;23.198;2023-07-30T07:46:20;4.38;;;2.78;;
34505;SDS011;20748;42.632;23.198;2023-07-30T07:48:53;3.58;;;2.33;;
34505;SDS011;20748;42.632;23.198;2023-07-30T07:51:25;4.55;;;3.05;;
34505;SDS011;20748;42.632;23.198;2023-07-30T07:53:58;3.83;;;2.42;;
34505;SDS011;20748;42.632;23.198;2023-07-30T07:56:30;4.32;;;2.75;;
34505;SDS011;20748;42.632;23.198;2023-07-30T07:59:03;4.15;;;2.97;;
34505;SDS011;20748;42.632;23.198;2023-07-30T08:01:36;4.40;;;2.45;;
34505;SDS011;20748;42.632;23.198;2023-07-30T08:04:09;4.15;;;2.78;;
34505;SDS011;20748;42.632;23.198;2023-07-30T08:06:41;4.03;;;2.70;;
34505;SDS011;20748;42.632;23.198;2023-07-30T08:09:14;5.43;;;3.05;;
34505;SDS011;20748;42.632;23.198;2023-07-30T08:11:46;3.80;;;2.67;;
34505;SDS011;20748;42.632;23.198;2023-07-30T08:14:19;6.70;;;3.08;;
34505;SDS011;20748;42.632;23.198;2023-07-30T08:16:53;4.10;;;2.78;;
34505;SDS011;20748;42.632;23.198;2023-07-30T08:19:26;4.78;;;3.13;;
34505;SDS011;20748;42.632;23.198;2023-07-30T08:21:58;3.65;;;2.58;;
34505;SDS011;20748;42.632;23.198;2023-07-30T08:24:31;4.15;;;2.42;;
34505;SDS011;20748;42.632;23.198;2023-07-30T08:27:03;3.90;;;2.45;;
34505;SDS011;20748;42.632;23.198;2023-07-30T08:29:37;6.50;;;2.47;;
34505;SDS011;20748;42.632;23.198;2023-07-30T08:32:10;3.95;;;2.72;;
34505;SDS011;20748;42.632;23.198;2023-07-30T08:34:43;4.82;;;2.80;;
34505;SDS011;20748;42.632;23.198;2023-07-30T08:37:15;3.45;;;2.67;;
34505;SDS011;20748;42.632;23.198;2023-07-30T08:39:48;4.50;;;2.58;;
34505;SDS011;20748;42.632;23.198;2023-07-30T08:42:22;3.95;;;2.42;;
34505;SDS011;20748;42.632;23.198;2023-07-30T08:44:55;3.53;;;2.40;;
34505;SDS011;20748;42.632;23.198;2023-07-30T08:47:27;3.83;;;2.58;;
34505;SDS011;20748;42.632;23.198;2023-07-30T08:49:59;4.13;;;2.63;;
34505;SDS011;20748;42.632;23.198;2023-07-30T08:52:33;5.10;;;2.33;;
34505;SDS011;20748;42.632;23.198;2023-07-30T08:55:07;2.95;;;2.17;;
34505;SDS011;20748;42.632;23.198;2023-07-30T08:57:40;3.28;;;2.47;;
34505;SDS011;20748;42.632;23.198;2023-07-30T09:00:17;3.83;;;2.78;;
34505;SDS011;20748;42.632;23.198;2023-07-30T09:02:52;4.03;;;2.40;;
34505;SDS011;20748;42.632;23.198;2023-07-30T09:05:27;4.18;;;2.42;;
34505;SDS011;20748;42.632;23.198;2023-07-30T09:08:00;3.67;;;2.45;;
34505;SDS011;20748;42.632;23.198;2023-07-30T09:10:33;4.47;;;2.60;;
34505;SDS011;20748;42.632;23.198;2023-07-30T09:13:05;4.10;;;2.60;;
34505;SDS011;20748;42.632;23.198;2023-07-30T09:15:40;3.83;;;2.45;;
34505;SDS011;20748;42.632;23.198;2023-07-30T09:18:12;3.60;;;2.50;;
34505;SDS011;20748;42.632;23.198;2023-07-30T09:20:48;3.88;;;2.55;;
34505;SDS011;20748;42.632;23.198;2023-07-30T09:23:21;4.25;;;2.92;;
34505;SDS011;20748;42.632;23.198;2023-07-30T09:25:53;4.60;;;2.60;;
34505;SDS011;20748;42.632;23.198;2023-07-30T09:28:30;3.80;;;3.00;;
34505;SDS011;20748;42.632;23.198;2023-07-30T09:31:04;2.92;;;2.47;;
34505;SDS011;20748;42.632;23.198;2023-07-30T09:33:53;5.15;;;3.13;;
34505;SDS011;20748;42.632;23.198;2023-07-30T09:36:27;3.90;;;2.90;;
34505;SDS011;20748;42.632;23.198;2023-07-30T09:39:00;3.53;;;2.67;;
34505;SDS011;20748;42.632;23.198;2023-07-30T09:41:33;3.83;;;2.50;;
34505;SDS011;20748;42.632;23.198;2023-07-30T09:44:06;4.65;;;2.90;;
34505;SDS011;20748;42.632;23.198;2023-07-30T09:46:43;3.33;;;2.58;;
34505;SDS011;20748;42.632;23.198;2023-07-30T09:49:16;4.35;;;2.60;;
34505;SDS011;20748;42.632;23.198;2023-07-30T09:51:49;3.47;;;2.70;;
34505;SDS011;20748;42.632;23.198;2023-07-30T09:54:23;3.58;;;2.50;;
34505;SDS011;20748;42.632;23.198;2023-07-30T09:56:56;4.53;;;2.80;;
34505;SDS011;20748;42.632;23.198;2023-07-30T09:59:28;3.90;;;2.58;;
34505;SDS011;20748;42.632;23.198;2023-07-30T10:02:01;4.60;;;3.20;;
34505;SDS011;20748;42.632;23.198;2023-07-30T10:04:34;4.20;;;2.90;;
34505;SDS011;20748;42.632;23.198;2023-07-30T10:07:13;4.30;;;2.53;;
34505;SDS011;20748;42.632;23.198;2023-07-30T10:09:50;3.33;;;2.40;;
34505;SDS011;20748;42.632;23.198;2023-07-30T10:12:28;4.07;;;2.50;;
34505;SDS011;20748;42.632;23.198;2023-07-30T10:15:04;4.83;;;3.10;;
34505;SDS011;20748;42.632;23.198;2023-07-30T10:17:39;5.30;;;2.95;;
34505;SDS011;20748;42.632;23.198;2023-07-30T10:20:19;4.03;;;2.90;;
34505;SDS011;20748;42.632;23.198;2023-07-30T10:22:53;4.00;;;2.70;;
34505;SDS011;20748;42.632;23.198;2023-07-30T10:25:28;5.57;;;3.15;;
34505;SDS011;20748;42.632;23.198;2023-07-30T10:28:01;4.25;;;3.08;;
34505;SDS011;20748;42.632;23.198;2023-07-30T10:30:34;3.65;;;2.47;;
34505;SDS011;20748;42.632;23.198;2023-07-30T10:33:09;4.50;;;2.60;;
34505;SDS011;20748;42.632;23.198;2023-07-30T10:35:42;3.88;;;2.72;;
34505;SDS011;20748;42.632;23.198;2023-07-30T10:38:16;3.88;;;2.97;;
34505;SDS011;20748;42.632;23.198;2023-07-30T10:41:01;3.53;;;2.45;;
34505;SDS011;20748;42.632;23.198;2023-07-30T10:43:36;3.30;;;2.40;;
34505;SDS011;20748;42.632;23.198;2023-07-30T10:46:12;5.53;;;2.90;;
34505;SDS011;20748;42.632;23.198;2023-07-30T10:48:47;4.13;;;3.03;;
34505;SDS011;20748;42.632;23.198;2023-07-30T10:51:20;4.40;;;3.20;;
34505;SDS011;20748;42.632;23.198;2023-07-30T10:53:54;4.53;;;2.65;;
34505;SDS011;20748;42.632;23.198;2023-07-30T10:56:26;4.63;;;3.35;;
34505;SDS011;20748;42.632;23.198;2023-07-30T10:58:58;3.90;;;2.78;;
34505;SDS011;20748;42.632;23.198;2023-07-30T11:01:31;3.95;;;2.70;;
34505;SDS011;20748;42.632;23.198;2023-07-30T11:04:09;4.28;;;2.75;;
34505;SDS011;20748;42.632;23.198;2023-07-30T11:06:44;3.42;;;2.95;;
34505;SDS011;20748;42.632;23.198;2023-07-30T11:09:18;4.38;;;2.45;;
34505;SDS011;20748;42.632;23.198;2023-07-30T11:11:52;4.10;;;2.90;;
34505;SDS011;20748;42.632;23.198;2023-07-30T11:14:26;7.55;;;3.35;;
34505;SDS011;20748;42.632;23.198;2023-07-30T11:16:59;4.03;;;3.10;;
34505;SDS011;20748;42.632;23.198;2023-07-30T11:19:33;4.82;;;3.13;;
34505;SDS011;20748;42.632;23.198;2023-07-30T11:22:05;4.50;;;3.10;;
34505;SDS011;20748;42.632;23.198;2023-07-30T11:24:41;4.32;;;3.33;;
34505;SDS011;20748;42.632;23.198;2023-07-30T11:27:13;7.43;;;3.28;;
34505;SDS011;20748;42.632;23.198;2023-07-30T11:29:53;8.63;;;3.50;;
34505;SDS011;20748;42.632;23.198;2023-07-30T11:32:27;5.82;;;3.53;;
34505;SDS011;20748;42.632;23.198;2023-07-30T11:35:02;5.53;;;3.30;;
34505;SDS011;20748;42.632;23.198;2023-07-30T11:37:34;6.20;;;3.28;;
34505;SDS011;20748;42.632;23.198;2023-07-30T11:40:11;7.97;;;3.80;;
34505;SDS011;20748;42.632;23.198;2023-07-30T11:42:44;5.97;;;3.28;;
34505;SDS011;20748;42.632;23.198;2023-07-30T11:45:17;5.70;;;3.35;;
34505;SDS011;20748;42.632;23.198;2023-07-30T11:47:50;8.23;;;4.07;;
34505;SDS011;20748;42.632;23.198;2023-07-30T11:50:24;4.85;;;3.70;;
34505;SDS011;20748;42.632;23.198;2023-07-30T11:52:56;4.88;;;3.45;;
34505;SDS011;20748;42.632;23.198;2023-07-30T11:55:36;5.28;;;3.13;;
34505;SDS011;20748;42.632;23.198;2023-07-30T11:58:10;5.38;;;3.42;;
34505;SDS011;20748;42.632;23.198;2023-07-30T12:00:43;6.13;;;3.55;;
34505;SDS011;20748;42.632;23.198;2023-07-30T12:03:15;4.43;;;3.22;;
34505;SDS011;20748;42.632;23.198;2023-07-30T12:05:49;6.93;;;3.90;;
34505;SDS011;20748;42.632;23.198;2023-07-30T12:08:25;8.02;;;3.97;;
34505;SDS011;20748;42.632;23.198;2023-07-30T12:11:01;5.20;;;3.45;;
34505;SDS011;20748;42.632;23.198;2023-07-30T12:13:41;3.72;;;2.70;;
34505;SDS011;20748;42.632;23.198;2023-07-30T12:16:14;4.90;;;3.30;;
34505;SDS011;20748;42.632;23.198;2023-07-30T12:18:50;5.68;;;3.33;;
34505;SDS011;20748;42.632;23.198;2023-07-30T12:21:23;4.47;;;3.53;;
34505;SDS011;20748;42.632;23.198;2023-07-30T12:23:56;6.55;;;4.47;;
34505;SDS011;20748;42.632;23.198;2023-07-30T12:26:29;6.30;;;3.47;;
34505;SDS011;20748;42.632;23.198;2023-07-30T12:29:01;3.58;;;3.17;;
34505;SDS011;20748;42.632;23.198;2023-07-30T12:31:33;3.97;;;3.13;;
34505;SDS011;20748;42.632;23.198;2023-07-30T12:34:06;4.63;;;3.30;;
34505;SDS011;20748;42.632;23.198;2023-07-30T12:36:39;6.85;;;3.70;;
34505;SDS011;20748;42.632;23.198;2023-07-30T12:39:11;4.90;;;3.60;;
34505;SDS011;20748;42.632;23.198;2023-07-30T12:41:44;9.13;;;3.75;;
34505;SDS011;20748;42.632;23.198;2023-07-30T12:44:16;5.47;;;3.88;;
34505;SDS011;20748;42.632;23.198;2023-07-30T12:46:48;5.28;;;3.60;;
34505;SDS011;20748;42.632;23.198;2023-07-30T12:49:21;11.95;;;4.07;;
34505;SDS011;20748;42.632;23.198;2023-07-30T12:51:54;3.92;;;2.88;;
34505;SDS011;20748;42.632;23.198;2023-07-30T12:54:27;5.28;;;3.10;;
34505;SDS011;20748;42.632;23.198;2023-07-30T12:56:59;5.07;;;3.25;;
34505;SDS011;20748;42.632;23.198;2023-07-30T12:59:32;5.72;;;3.60;;
34505;SDS011;20748;42.632;23.198;2023-07-30T13:02:07;4.85;;;2.70;;
34505;SDS011;20748;42.632;23.198;2023-07-30T13:04:39;4.70;;;3.00;;
34505;SDS011;20748;42.632;23.198;2023-07-30T13:07:12;4.78;;;3.30;;
34505;SDS011;20748;42.632;23.198;2023-07-30T13:09:45;8.00;;;3.22;;
34505;SDS011;20748;42.632;23.198;2023-07-30T13:12:18;3.53;;;2.78;;
34505;SDS011;20748;42.632;23.198;2023-07-30T13:14:50;4.50;;;2.85;;
34505;SDS011;20748;42.632;23.198;2023-07-30T13:17:23;3.90;;;3.00;;
34505;SDS011;20748;42.632;23.198;2023-07-30T13:19:55;4.63;;;3.13;;
34505;SDS011;20748;42.632;23.198;2023-07-30T13:22:29;5.07;;;3.60;;
34505;SDS011;20748;42.632;23.198;2023-07-30T13:25:01;5.68;;;3.40;;
34505;SDS011;20748;42.632;23.198;2023-07-30T13:27:34;5.43;;;3.83;;
34505;SDS011;20748;42.632;23.198;2023-07-30T13:30:08;7.07;;;3.58;;
34505;SDS011;20748;42.632;23.198;2023-07-30T13:32:41;4.63;;;3.15;;
34505;SDS011;20748;42.632;23.198;2023-07-30T13:35:14;4.65;;;2.97;;
34505;SDS011;20748;42.632;23.198;2023-07-30T13:37:47;4.95;;;3.38;;
34505;SDS011;20748;42.632;23.198;2023-07-30T13:40:19;8.07;;;3.85;;
34505;SDS011;20748;42.632;23.198;2023-07-30T13:42:51;6.63;;;3.22;;
34505;SDS011;20748;42.632;23.198;2023-07-30T13:45:24;4.38;;;3.30;;
34505;SDS011;20748;42.632;23.198;2023-07-30T13:47:56;3.95;;;3.17;;
34505;SDS011;20748;42.632;23.198;2023-07-30T13:50:29;5.70;;;3.30;;
34505;SDS011;20748;42.632;23.198;2023-07-30T13:53:02;5.47;;;3.20;;
34505;SDS011;20748;42.632;23.198;2023-07-30T13:55:34;4.65;;;3.17;;
34505;SDS011;20748;42.632;23.198;2023-07-30T13:58:06;5.88;;;3.10;;
34505;SDS011;20748;42.632;23.198;2023-07-30T14:00:40;12.32;;;3.65;;
34505;SDS011;20748;42.632;23.198;2023-07-30T14:03:14;5.20;;;3.75;;
34505;SDS011;20748;42.632;23.198;2023-07-30T14:05:46;5.43;;;2.88;;
34505;SDS011;20748;42.632;23.198;2023-07-30T14:08:19;4.90;;;3.60;;
34505;SDS011;20748;42.632;23.198;2023-07-30T14:10:53;5.43;;;3.20;;
34505;SDS011;20748;42.632;23.198;2023-07-30T14:13:25;4.25;;;2.97;;
34505;SDS011;20748;42.632;23.198;2023-07-30T14:16:00;3.95;;;3.17;;
34505;SDS011;20748;42.632;23.198;2023-07-30T14:18:33;4.65;;;3.85;;
34505;SDS011;20748;42.632;23.198;2023-07-30T14:21:05;4.88;;;3.35;;
34505;SDS011;20748;42.632;23.198;2023-07-30T14:23:38;5.43;;;2.95;;
34505;SDS011;20748;42.632;23.198;2023-07-30T14:26:11;4.70;;;3.38;;
34505;SDS011;20748;42.632;23.198;2023-07-30T14:28:43;5.97;;;3.28;;
34505;SDS011;20748;42.632;23.198;2023-07-30T14:31:16;5.00;;;3.30;;
34505;SDS011;20748;42.632;23.198;2023-07-30T14:33:48;6.78;;;3.63;;
34505;SDS011;20748;42.632;23.198;2023-07-30T14:36:20;5.60;;;4.07;;
34505;SDS011;20748;42.632;23.198;2023-07-30T14:38:53;5.95;;;3.63;;
34505;SDS011;20748;42.632;23.198;2023-07-30T14:41:26;7.15;;;3.70;;
34505;SDS011;20748;42.632;23.198;2023-07-30T14:43:58;5.45;;;4.00;;
34505;SDS011;20748;42.632;23.198;2023-07-30T14:46:30;7.20;;;4.03;;
34505;SDS011;20748;42.632;23.198;2023-07-30T14:49:03;5.47;;;3.58;;
34505;SDS011;20748;42.632;23.198;2023-07-30T14:51:35;4.90;;;3.53;;
34505;SDS011;20748;42.632;23.198;2023-07-30T14:54:09;4.72;;;3.45;;
34505;SDS011;20748;42.632;23.198;2023-07-30T14:56:42;4.68;;;3.33;;
34505;SDS011;20748;42.632;23.198;2023-07-30T14:59:14;4.93;;;3.72;;
34505;SDS011;20748;42.632;23.198;2023-07-30T15:01:46;5.55;;;3.92;;
34505;SDS011;20748;42.632;23.198;2023-07-30T15:04:19;4.45;;;3.38;;
34505;SDS011;20748;42.632;23.198;2023-07-30T15:06:51;17.38;;;8.45;;
34505;SDS011;20748;42.632;23.198;2023-07-30T15:09:24;8.35;;;5.95;;
34505;SDS011;20748;42.632;23.198;2023-07-30T15:11:57;7.43;;;4.40;;